Time;durP1;ratioP1;P1;durP2;ratioP2;P2;SDS_P1;SDS_P2;PMS_P1;PMS_P2;Temp;Humidity;BMP_temperature;BMP_pressure;BME280_temperature;BME280_humidity;BME280_pressure;Samples;Min_cycle;Max_cycle;Signal;HPM_P1;HPM_P2
2022/05/13 00:01:07;;;;;;;3.23;1.50;;;;;;;12.04;81.48;101129.44;5035042;28;20447;-72
2022/05/13 00:03:34;;;;;;;2.03;1.83;;;;;;;11.84;83.72;101115.09;5034889;28;20454;-72
2022/05/13 00:06:01;;;;;;;1.80;1.23;;;;;;;11.67;87.51;101130.28;5034830;28;20470;-72
2022/05/13 00:08:28;;;;;;;2.57;1.40;;;;;;;11.65;88.19;101135.22;5034843;28;20446;-73
2022/05/13 00:10:55;;;;;;;2.87;1.73;;;;;;;11.65;88.83;101133.28;5034807;28;20443;-72
2022/05/13 00:13:23;;;;;;;1.33;1.13;;;;;;;11.66;89.10;101132.19;5034689;28;20451;-72
2022/05/13 00:15:50;;;;;;;3.10;1.30;;;;;;;11.58;89.38;101135.56;5034221;28;20485;-72
2022/05/13 00:18:17;;;;;;;2.90;1.63;;;;;;;11.62;89.55;101131.16;5034238;28;20562;-71
2022/05/13 00:20:44;;;;;;;2.47;1.43;;;;;;;11.52;89.98;101136.75;5034529;28;20443;-71
2022/05/13 00:23:11;;;;;;;2.10;1.60;;;;;;;11.49;90.71;101129.19;5034564;28;20494;-73
2022/05/13 00:25:38;;;;;;;2.20;1.73;;;;;;;11.54;90.33;101124.47;5034114;28;20980;-68
2022/05/13 00:28:07;;;;;;;2.00;1.67;;;;;;;11.59;90.32;101135.25;5034136;28;20861;-68
2022/05/13 00:30:37;;;;;;;1.37;1.20;;;;;;;11.63;90.06;101140.91;5034384;28;20450;-71
2022/05/13 00:33:04;;;;;;;2.17;1.97;;;;;;;11.61;89.78;101134.97;5034401;28;20447;-72
2022/05/13 00:35:30;;;;;;;2.23;1.70;;;;;;;11.55;89.91;101136.13;5034156;28;20471;-71
2022/05/13 00:37:57;;;;;;;2.73;1.90;;;;;;;11.41;90.64;101125.22;5033852;28;21024;-72
2022/05/13 00:40:24;;;;;;;2.50;1.50;;;;;;;11.38;90.92;101128.53;5034181;28;20489;-72
2022/05/13 00:42:51;;;;;;;2.00;1.53;;;;;;;11.35;91.04;101127.19;5034097;28;20442;-72
2022/05/13 00:45:18;;;;;;;3.30;1.90;;;;;;;11.24;91.08;101125.72;5034006;28;20459;-72
2022/05/13 00:47:46;;;;;;;2.40;1.70;;;;;;;11.32;90.59;101122.34;5034091;28;20444;-72
2022/05/13 00:50:15;;;;;;;2.57;1.90;;;;;;;11.33;90.54;101124.00;5034023;28;20452;-72
2022/05/13 00:52:44;;;;;;;2.90;2.23;;;;;;;11.20;89.65;101116.59;5033988;28;20453;-72
2022/05/13 00:55:14;;;;;;;3.77;2.23;;;;;;;11.18;88.24;101129.59;5033904;28;20454;-72
2022/05/13 00:57:42;;;;;;;2.60;1.67;;;;;;;11.05;87.67;101127.59;5033863;28;20438;-72
2022/05/13 01:00:13;;;;;;;3.47;1.50;;;;;;;10.95;88.10;101122.31;5033931;28;20864;-72
2022/05/13 01:02:43;;;;;;;1.63;1.50;;;;;;;10.96;88.69;101127.44;5033794;28;20477;-72
2022/05/13 01:05:12;;;;;;;3.90;2.03;;;;;;;10.81;89.82;101109.47;5033722;28;20505;-72
2022/05/13 01:07:39;;;;;;;2.87;2.13;;;;;;;10.77;91.08;101111.16;5033698;28;20444;-72
2022/05/13 01:10:08;;;;;;;2.30;1.83;;;;;;;10.81;91.70;101120.31;5033701;28;20443;-73
2022/05/13 01:12:38;;;;;;;6.43;2.00;;;;;;;10.79;92.63;101116.25;5033638;28;20443;-72
2022/05/13 01:15:08;;;;;;;1.73;1.63;;;;;;;10.67;92.56;101122.13;5032993;28;20439;-73
2022/05/13 01:20:25;;;;;;;1.53;1.40;;;;;;;10.75;92.72;101124.16;5033437;28;20478;-72
2022/05/13 01:22:55;;;;;;;5.47;2.40;;;;;;;10.63;93.78;101122.97;5033591;28;20463;-72
2022/05/13 01:25:24;;;;;;;2.83;2.10;;;;;;;10.70;93.06;101120.72;5033123;28;21015;-72
2022/05/13 01:27:52;;;;;;;3.20;1.80;;;;;;;10.81;92.41;101120.31;5032870;28;20470;-72
2022/05/13 01:30:21;;;;;;;2.57;1.97;;;;;;;10.68;93.66;101131.03;5033149;28;20443;-73
2022/05/13 01:32:47;;;;;;;2.27;1.90;;;;;;;10.74;93.27;101119.03;5033378;28;20431;-72
2022/05/13 01:35:14;;;;;;;2.30;1.90;;;;;;;10.73;92.47;101115.53;5033039;28;20856;-72
2022/05/13 01:37:40;;;;;;;2.70;2.20;;;;;;;10.63;93.66;101126.50;5033219;28;20478;-72
2022/05/13 01:40:10;;;;;;;5.63;2.33;;;;;;;10.42;94.41;101130.50;5033354;28;20447;-72
2022/05/13 01:42:37;;;;;;;2.97;2.47;;;;;;;10.33;94.95;101124.91;5033258;28;20450;-72
2022/05/13 01:45:04;;;;;;;3.37;2.20;;;;;;;10.41;95.00;101118.06;5033194;28;20442;-72
2022/05/13 01:47:30;;;;;;;3.13;2.10;;;;;;;10.44;92.96;101118.28;5033304;28;20447;-72
2022/05/13 01:49:58;;;;;;;2.10;1.90;;;;;;;10.35;91.20;101118.09;5033174;28;20439;-72
2022/05/13 01:52:25;;;;;;;2.63;1.80;;;;;;;10.36;89.04;101116.22;5033194;28;20442;-72
2022/05/13 01:54:51;;;;;;;3.20;2.13;;;;;;;10.18;90.54;101112.28;5033192;28;20451;-72
2022/05/13 01:57:19;;;;;;;2.67;2.23;;;;;;;10.16;91.63;101108.25;5033152;28;20462;-72
2022/05/13 01:59:46;;;;;;;3.17;2.17;;;;;;;10.21;89.06;101110.91;5033108;28;20490;-73
2022/05/13 02:02:12;;;;;;;2.87;2.60;;;;;;;10.13;89.84;101106.09;5033134;28;20459;-73
2022/05/13 02:04:39;;;;;;;3.30;2.33;;;;;;;10.00;91.46;101102.16;5032772;28;20447;-73
2022/05/13 02:07:06;;;;;;;4.17;2.87;;;;;;;9.90;94.32;101110.38;5032963;28;20474;-72
2022/05/13 02:09:32;;;;;;;2.20;2.00;;;;;;;10.03;93.21;101102.41;5033019;28;20446;-72
2022/05/13 02:11:59;;;;;;;5.80;2.33;;;;;;;10.17;92.70;101102.53;5033033;28;20451;-72
2022/05/13 02:14:27;;;;;;;3.23;2.60;;;;;;;10.16;92.71;101094.72;5033006;28;20443;-73
2022/05/13 02:16:53;;;;;;;2.93;2.47;;;;;;;10.03;93.56;101096.19;5032537;28;20474;-73
2022/05/13 02:19:19;;;;;;;2.83;2.40;;;;;;;10.07;93.34;101098.03;5032873;28;20486;-73
2022/05/13 02:21:46;;;;;;;5.90;2.47;;;;;;;10.10;92.78;101093.97;5032635;28;20940;-73
2022/05/13 02:24:12;;;;;;;3.00;2.17;;;;;;;10.03;93.70;101096.97;5032548;28;20955;-73
2022/05/13 02:26:39;;;;;;;2.13;1.93;;;;;;;9.97;94.32;101092.72;5032769;28;20494;-73
2022/05/13 02:29:06;;;;;;;2.17;1.70;;;;;;;9.86;95.16;101088.47;5032848;28;20431;-73
2022/05/13 02:31:34;;;;;;;3.70;2.40;;;;;;;9.96;94.21;101091.13;5032754;28;20490;-73
2022/05/13 02:34:01;;;;;;;5.83;2.37;;;;;;;9.93;93.85;101093.56;5033145;28;20443;-73
2022/05/13 02:36:28;;;;;;;2.90;2.10;;;;;;;9.91;91.15;101084.91;5032477;28;20474;-73
2022/05/13 02:38:54;;;;;;;2.40;2.07;;;;;;;9.78;91.85;101087.22;5032674;28;20486;-73
2022/05/13 02:41:21;;;;;;;3.93;2.07;;;;;;;9.87;90.88;101087.38;5036182;28;20457;-73
2022/05/13 02:43:50;;;;;;;6.47;3.60;;;;;;;9.73;91.86;101081.81;5036369;28;20446;-73
2022/05/13 02:46:22;;;;;;;2.67;2.20;;;;;;;9.53;92.21;101087.41;5035995;28;21017;-73
2022/05/13 02:48:50;;;;;;;2.90;2.50;;;;;;;9.47;92.77;101085.78;5036334;28;20445;-73
2022/05/13 02:51:18;;;;;;;4.47;3.00;;;;;;;9.51;91.44;101090.34;5036339;28;20447;-73
2022/05/13 02:53:45;;;;;;;3.77;2.70;;;;;;;9.58;92.58;101087.34;5036178;28;20442;-74
2022/05/13 02:56:12;;;;;;;3.20;2.77;;;;;;;9.63;92.91;101084.59;5036144;28;20462;-73
2022/05/13 02:58:41;;;;;;;2.57;2.10;;;;;;;9.62;94.61;101083.00;5036052;28;20492;-73
2022/05/13 03:01:08;;;;;;;2.70;2.33;;;;;;;9.69;94.16;101086.16;5036097;28;20443;-73
2022/05/13 03:03:37;;;;;;;3.00;2.53;;;;;;;9.62;95.13;101083.00;5036055;28;20438;-74
2022/05/13 03:06:05;;;;;;;3.10;2.63;;;;;;;9.61;95.17;101084.09;5035980;28;20459;-73
2022/05/13 03:08:32;;;;;;;2.90;2.27;;;;;;;9.66;94.57;101078.63;5035668;28;20945;-73
2022/05/13 03:10:58;;;;;;;2.50;2.10;;;;;;;9.62;94.66;101080.28;5035909;28;20447;-73
2022/05/13 03:13:25;;;;;;;4.13;2.80;;;;;;;9.65;95.06;101082.44;5035553;28;20941;-72
2022/05/13 03:15:51;;;;;;;5.87;2.80;;;;;;;9.61;94.55;101081.38;5035515;28;20486;-72
2022/05/13 03:18:18;;;;;;;8.40;3.17;;;;;;;9.68;94.22;101078.34;5035454;28;20949;-72
2022/05/13 03:20:44;;;;;;;16.20;3.90;;;;;;;9.55;96.08;101082.50;5035426;28;21020;-72
2022/05/13 03:23:12;;;;;;;5.10;2.30;;;;;;;9.52;96.01;101083.88;5035674;28;20439;-72
2022/05/13 03:25:38;;;;;;;3.40;2.87;;;;;;;9.51;95.88;101073.34;5035638;28;20466;-72
2022/05/13 03:28:05;;;;;;;3.63;2.73;;;;;;;9.59;94.89;101084.34;5035329;28;20951;-72
2022/05/13 03:30:32;;;;;;;2.90;2.57;;;;;;;9.50;95.83;101082.53;5035635;28;20443;-72
2022/05/13 03:32:58;;;;;;;3.53;2.73;;;;;;;9.42;94.21;101077.72;5035551;28;20436;-72
2022/05/13 03:35:26;;;;;;;2.97;2.67;;;;;;;9.46;94.48;101078.78;5035150;28;20985;-72
2022/05/13 03:37:52;;;;;;;2.90;2.47;;;;;;;9.54;91.90;101083.59;5035447;28;20439;-72
2022/05/13 03:40:20;;;;;;;3.70;2.63;;;;;;;9.41;92.33;101082.31;5035331;28;20490;-72
2022/05/13 03:42:47;;;;;;;3.10;2.67;;;;;;;9.33;91.93;101085.63;5035102;28;20960;-72
2022/05/13 03:45:16;;;;;;;3.23;2.70;;;;;;;9.28;91.71;101086.47;5035274;28;20449;-71
2022/05/13 03:47:44;;;;;;;4.33;2.70;;;;;;;9.26;92.15;101082.44;5035261;28;20450;-72
2022/05/13 03:50:11;;;;;;;3.80;3.30;;;;;;;9.31;93.13;101083.19;5034928;28;20953;-71
2022/05/13 03:52:38;;;;;;;5.00;2.80;;;;;;;9.31;94.93;101083.19;5034395;28;20450;-71
2022/05/13 03:55:07;;;;;;;3.27;2.90;;;;;;;9.29;96.03;101082.66;5035093;28;20443;-72
2022/05/13 03:57:34;;;;;;;3.97;2.97;;;;;;;9.32;96.37;101084.00;5035071;28;20514;-74
2022/05/13 04:00:03;;;;;;;3.10;2.17;;;;;;;9.19;97.50;101082.72;5034927;28;20479;-67
2022/05/13 04:02:30;;;;;;;2.43;2.13;;;;;;;9.22;97.80;101084.09;5035010;28;20457;-68
2022/05/13 04:10:25;;;;;;;6.93;3.23;;;;;;;9.40;97.75;101078.00;5034686;28;20403;-74
2022/05/13 04:18:21;;;;;;;3.27;2.50;;;;;;;9.44;99.44;101070.16;5034567;28;20435;-75
2022/05/13 04:20:48;;;;;;;9.70;3.73;;;;;;;9.57;98.72;101069.53;5034281;28;21008;-72
2022/05/13 04:23:15;;;;;;;4.70;2.83;;;;;;;9.70;98.86;101060.75;5034350;28;20447;-75
2022/05/13 04:25:41;;;;;;;5.13;3.50;;;;;;;9.82;98.33;101066.59;5034185;28;20992;-75
2022/05/13 04:28:09;;;;;;;4.77;3.80;;;;;;;9.75;96.78;101063.41;5034501;28;20439;-75
2022/05/13 04:30:35;;;;;;;2.90;2.60;;;;;;;9.85;96.29;101066.03;5034417;28;20446;-73
2022/05/13 04:33:02;;;;;;;3.10;2.80;;;;;;;9.94;95.19;101068.13;5034446;28;20443;-72
2022/05/13 04:35:29;;;;;;;5.17;3.90;;;;;;;10.04;94.67;101062.59;5034301;28;20463;-75
2022/05/13 04:37:55;;;;;;;4.60;3.50;;;;;;;10.03;95.10;101061.81;5034193;28;20451;-75
2022/05/13 04:40:21;;;;;;;2.87;2.50;;;;;;;10.13;94.67;101055.47;5034178;28;20486;-69
2022/05/13 04:42:50;;;;;;;3.90;3.47;;;;;;;10.27;94.01;101061.88;5034138;28;20902;-71
2022/05/13 04:45:23;;;;;;;4.53;3.33;;;;;;;10.39;94.02;101061.47;5033621;28;20808;-75
2022/05/13 04:50:36;;;;;;;4.60;3.10;;;;;;;10.61;96.63;101059.03;5033928;28;20407;-75
2022/05/13 04:53:03;;;;;;;5.63;3.60;;;;;;;10.74;97.02;101060.25;5034302;28;20454;-75
2022/05/13 04:55:30;;;;;;;4.43;3.60;;;;;;;10.92;97.25;101063.28;5033585;28;20985;-76
2022/05/13 04:57:56;;;;;;;4.30;3.13;;;;;;;11.04;97.47;101063.66;5033643;28;20976;-75
2022/05/13 05:00:24;;;;;;;3.57;2.53;;;;;;;11.18;97.67;101067.25;5033826;28;20861;-75
2022/05/13 05:02:51;;;;;;;5.10;4.30;;;;;;;11.27;98.01;101065.47;5033767;28;20446;-68
2022/05/13 05:05:17;;;;;;;4.20;3.67;;;;;;;11.39;98.13;101073.19;5033707;28;20470;-74
2022/05/13 05:07:43;;;;;;;5.53;4.03;;;;;;;11.54;97.54;101069.41;5033622;28;20452;-74
2022/05/13 05:10:11;;;;;;;11.90;5.63;;;;;;;11.72;94.22;101074.00;5033306;28;20942;-75
2022/05/13 05:12:37;;;;;;;8.50;5.00;;;;;;;11.93;92.52;101069.09;5033687;28;20526;-75
2022/05/13 05:15:05;;;;;;;9.03;5.20;;;;;;;12.08;91.40;101076.13;5033054;28;20818;-75
2022/05/13 05:17:32;;;;;;;5.70;4.20;;;;;;;12.27;90.75;101076.91;5033334;28;20912;-76
2022/05/13 05:19:59;;;;;;;5.90;4.13;;;;;;;12.40;89.09;101075.31;5033177;28;20521;-75
2022/05/13 05:22:25;;;;;;;7.30;5.00;;;;;;;12.53;89.32;101069.06;5033582;28;20509;-75
2022/05/13 05:24:52;;;;;;;5.17;3.60;;;;;;;12.72;89.01;101070.88;5033598;28;20477;-75
2022/05/13 05:27:18;;;;;;;7.33;4.30;;;;;;;12.86;88.70;101072.44;5033410;28;20459;-75
2022/05/13 05:29:46;;;;;;;7.57;4.13;;;;;;;12.96;88.85;101065.19;5033343;28;20446;-75
2022/05/13 05:32:13;;;;;;;5.23;3.60;;;;;;;13.09;86.68;101070.59;5033406;28;20443;-75
2022/05/13 05:34:41;;;;;;;5.03;3.80;;;;;;;13.21;85.37;101061.91;5032982;28;20787;-75
2022/05/13 05:37:08;;;;;;;4.40;3.33;;;;;;;13.34;83.18;101063.81;5033233;28;20463;-75
2022/05/13 05:39:34;;;;;;;4.20;3.17;;;;;;;13.46;82.89;101076.06;5033115;28;20573;-75
2022/05/13 05:42:00;;;;;;;3.93;3.20;;;;;;;13.56;82.71;101071.19;5032980;28;20854;-75
2022/05/13 05:44:27;;;;;;;12.60;3.57;;;;;;;13.69;81.90;101072.25;5033037;28;20969;-75
2022/05/13 05:46:53;;;;;;;4.03;2.83;;;;;;;13.80;81.51;101072.78;5033263;28;20517;-75
2022/05/13 05:49:20;;;;;;;13.70;2.90;;;;;;;13.92;80.81;101072.22;5034531;28;20451;-75
2022/05/13 05:51:48;;;;;;;2.53;2.20;;;;;;;14.04;79.71;101070.53;5033075;28;20451;-75
2022/05/13 05:57:16;;;;;;;4.00;2.60;;;;;;;14.30;79.48;101062.50;5032956;28;20438;-76
2022/05/13 05:59:44;;;;;;;3.73;2.67;;;;;;;14.48;77.84;101065.28;5033079;28;20478;-75
2022/05/13 06:02:11;;;;;;;4.83;3.00;;;;;;;14.60;76.94;101068.22;5033115;28;20443;-75
2022/05/13 06:04:37;;;;;;;5.13;2.40;;;;;;;14.77;75.54;101067.47;5033072;28;20443;-75
2022/05/13 06:07:05;;;;;;;4.70;2.30;;;;;;;14.90;75.85;101077.47;5033007;28;20505;-75
2022/05/13 06:09:32;;;;;;;4.63;2.80;;;;;;;15.02;75.00;101074.13;5032978;28;20493;-75
2022/05/13 06:11:58;;;;;;;3.97;3.20;;;;;;;15.09;74.75;101079.88;5032694;28;20838;-75
2022/05/13 06:14:26;;;;;;;2.60;2.23;;;;;;;15.16;74.03;101076.69;5033306;28;20446;-75
2022/05/13 06:16:52;;;;;;;3.30;3.00;;;;;;;15.33;72.52;101084.91;5036490;28;20481;-75
2022/05/13 06:19:18;;;;;;;2.80;2.30;;;;;;;15.43;72.98;101081.84;5037003;28;20469;-75
2022/05/13 06:21:45;;;;;;;4.20;2.77;;;;;;;15.48;71.89;101081.69;5036577;28;20447;-75
2022/05/13 06:24:14;;;;;;;3.10;2.53;;;;;;;15.50;71.73;101084.09;5036846;28;20481;-75
2022/05/13 06:26:41;;;;;;;3.30;2.67;;;;;;;15.57;72.37;101084.41;5036660;28;20533;-75
2022/05/13 06:29:08;;;;;;;5.60;3.27;;;;;;;15.67;72.33;101078.66;5036749;28;20850;-74
2022/05/13 06:31:36;;;;;;;2.70;2.50;;;;;;;15.74;71.42;101083.63;5036273;28;20944;-75
2022/05/13 06:34:02;;;;;;;4.10;3.00;;;;;;;15.79;71.41;101084.25;5036619;28;20447;-75
2022/05/13 06:36:29;;;;;;;5.57;3.10;;;;;;;15.98;70.79;101072.97;5036514;28;20477;-75
2022/05/13 06:38:57;;;;;;;7.73;2.70;;;;;;;16.18;70.92;101087.88;5036571;28;20513;-75
2022/05/13 06:41:25;;;;;;;5.90;3.80;;;;;;;16.40;66.88;101076.69;5036465;28;20925;-75
2022/05/13 06:43:52;;;;;;;3.73;2.60;;;;;;;16.63;65.95;101085.41;5036472;28;20493;-75
2022/05/13 06:46:20;;;;;;;5.00;3.17;;;;;;;16.85;64.97;101092.56;5036360;28;20463;-75
2022/05/13 06:48:47;;;;;;;3.40;2.50;;;;;;;16.91;65.51;101093.22;5036074;28;20987;-75
2022/05/13 06:51:13;;;;;;;7.33;3.40;;;;;;;17.18;65.43;101086.44;5036325;28;20435;-75
2022/05/13 06:53:40;;;;;;;4.03;3.60;;;;;;;17.19;61.84;101088.03;5036231;28;20455;-76
2022/05/13 06:56:06;;;;;;;3.70;3.03;;;;;;;17.23;62.79;101083.50;5036176;28;20486;-75
2022/05/13 06:58:34;;;;;;;7.27;3.80;;;;;;;17.29;63.11;101082.13;5036170;28;20458;-75
2022/05/13 07:01:01;;;;;;;4.30;3.00;;;;;;;17.32;61.69;101081.47;5036057;28;20521;-75
2022/05/13 07:03:28;;;;;;;5.00;3.00;;;;;;;17.31;62.36;101082.63;5036114;28;20443;-75
2022/05/13 07:05:54;;;;;;;8.60;4.20;;;;;;;17.37;62.17;101083.22;5035968;28;20513;-75
2022/05/13 07:08:21;;;;;;;6.30;4.40;;;;;;;17.46;61.71;101077.66;5035864;28;20489;-75
2022/05/13 07:10:47;;;;;;;5.20;4.70;;;;;;;17.54;61.16;101069.38;5035896;28;20470;-75
2022/05/13 07:13:15;;;;;;;5.10;4.00;;;;;;;17.60;60.82;101078.19;5035824;28;20459;-75
2022/05/13 07:15:43;;;;;;;12.07;4.53;;;;;;;17.77;59.69;101088.22;5035422;28;20479;-75
2022/05/13 07:18:10;;;;;;;5.73;3.80;;;;;;;17.80;60.16;101091.09;5035731;28;20654;-75
2022/05/13 07:20:37;;;;;;;4.53;3.20;;;;;;;17.83;61.40;101087.66;5035329;28;21058;-74
2022/05/13 07:23:04;;;;;;;6.43;4.07;;;;;;;17.79;61.73;101099.63;5035623;28;20431;-75
2022/05/13 07:25:32;;;;;;;4.30;3.50;;;;;;;17.86;61.39;101097.94;5035215;28;20881;-75
2022/05/13 07:27:58;;;;;;;6.60;4.37;;;;;;;17.83;61.42;101095.88;5034882;28;20960;-75
2022/05/13 07:30:25;;;;;;;5.47;3.27;;;;;;;17.77;61.84;101101.91;5035614;28;20443;-75
2022/05/13 07:32:53;;;;;;;4.90;3.37;;;;;;;17.76;62.59;101095.63;5035934;28;20443;-75
2022/05/13 07:35:19;;;;;;;7.50;4.17;;;;;;;17.65;63.23;101095.19;5035578;28;20530;-75
2022/05/13 07:37:46;;;;;;;4.27;3.10;;;;;;;17.64;61.80;101104.56;5035562;28;20479;-75
2022/05/13 07:42:57;;;;;;;5.90;4.00;;;;;;;17.72;62.09;101113.06;5035354;28;20454;-75
2022/05/13 07:45:24;;;;;;;3.80;2.90;;;;;;;17.91;61.61;101118.84;5035264;28;20555;-75
2022/05/13 07:47:51;;;;;;;7.03;3.40;;;;;;;17.98;59.69;101118.31;5035266;28;20443;-75
2022/05/13 07:50:19;;;;;;;11.90;3.83;;;;;;;17.83;59.75;101123.28;5035322;28;20447;-75
2022/05/13 07:52:46;;;;;;;5.70;3.60;;;;;;;17.81;60.38;101119.28;5035243;28;20516;-75
2022/05/13 07:55:15;;;;;;;4.57;3.97;;;;;;;17.72;59.79;101116.59;5035127;28;20436;-75
2022/05/13 07:57:43;;;;;;;3.97;3.47;;;;;;;17.73;60.74;101111.91;5035169;28;20451;-75
2022/05/13 08:00:26;;;;;;;7.80;4.57;;;;;;;17.68;60.55;101115.66;5035030;28;20494;-75
2022/05/13 08:02:53;;;;;;;6.53;3.57;;;;;;;17.76;61.15;101120.28;5035177;28;20849;-75
2022/05/13 08:05:20;;;;;;;5.23;4.00;;;;;;;17.75;61.72;101115.97;5034617;28;21158;-75
2022/05/13 08:07:47;;;;;;;6.20;3.90;;;;;;;17.61;62.35;101113.44;5034934;28;20443;-75
2022/05/13 08:10:14;;;;;;;8.60;4.43;;;;;;;17.44;61.06;101110.06;5034937;28;20945;-75
2022/05/13 08:12:42;;;;;;;6.33;3.90;;;;;;;17.30;62.78;101102.09;5034764;28;20481;-75
2022/05/13 08:15:09;;;;;;;6.17;3.70;;;;;;;17.21;63.11;101096.69;5034601;28;20521;-75
2022/05/13 08:17:36;;;;;;;5.87;3.60;;;;;;;17.19;62.99;101118.13;5034780;28;20424;-75
2022/05/13 08:20:03;;;;;;;5.90;4.40;;;;;;;17.12;63.79;101124.13;5034638;28;20519;-75
2022/05/13 08:22:31;;;;;;;4.50;3.30;;;;;;;17.12;63.51;101120.59;5034550;28;20447;-74
2022/05/13 08:24:57;;;;;;;4.60;3.67;;;;;;;17.06;64.90;101113.72;5034299;28;20941;-75
2022/05/13 08:27:24;;;;;;;6.30;3.90;;;;;;;17.05;64.54;101120.34;5034106;28;20891;-75
2022/05/13 08:29:50;;;;;;;11.77;4.20;;;;;;;17.02;64.75;101115.50;5034470;28;20451;-75
2022/05/13 08:32:17;;;;;;;7.43;2.77;;;;;;;17.06;65.06;101110.97;5034400;28;20451;-75
2022/05/13 08:34:43;;;;;;;4.30;3.77;;;;;;;17.00;64.41;101112.28;5034401;28;20438;-75
2022/05/13 08:37:09;;;;;;;4.03;3.10;;;;;;;16.97;64.70;101119.25;5033895;28;20466;-76
2022/05/13 08:39:37;;;;;;;6.73;3.70;;;;;;;16.99;64.11;101121.63;5034333;28;20443;-75
2022/05/13 08:42:13;;;;;;;8.63;3.70;;;;;;;17.00;63.65;101126.81;5033863;28;20992;-75
2022/05/13 08:44:40;;;;;;;4.30;3.90;;;;;;;17.00;62.77;101118.59;5034246;28;20485;-75
2022/05/13 08:47:13;;;;;;;5.20;3.10;;;;;;;17.01;62.54;101109.25;5034051;28;20467;-75
2022/05/13 08:49:50;;;;;;;3.60;3.10;;;;;;;17.21;63.23;101107.66;5034127;28;20454;-76
2022/05/13 08:55:15;;;;;;;5.30;3.33;;;;;;;17.56;61.92;101105.44;5033895;28;20489;-75
2022/05/13 08:57:46;;;;;;;5.83;3.50;;;;;;;17.85;60.80;101104.56;5033969;28;20454;-75
2022/05/13 09:00:17;;;;;;;3.87;2.93;;;;;;;18.04;59.23;101119.69;5034070;28;20497;-75
2022/05/13 09:02:51;;;;;;;5.20;3.60;;;;;;;18.17;58.21;101115.84;5033619;28;20958;-75
2022/05/13 09:05:25;;;;;;;3.77;3.27;;;;;;;18.32;57.44;101123.41;5033826;28;20424;-76
2022/05/13 09:07:52;;;;;;;5.17;3.20;;;;;;;18.57;56.88;101112.47;5033886;28;20485;-75
2022/05/13 09:10:20;;;;;;;7.80;3.23;;;;;;;18.66;55.59;101111.22;5033869;28;20443;-75
2022/05/13 09:12:52;;;;;;;2.60;2.20;;;;;;;18.68;55.50;101102.63;5033434;28;20960;-75
2022/05/13 09:15:23;;;;;;;4.40;2.90;;;;;;;18.61;54.52;101107.91;5033640;28;20463;-75
2022/05/13 09:18:01;;;;;;;2.70;2.50;;;;;;;18.44;54.00;101091.66;5033407;28;20909;-75
2022/05/13 09:20:28;;;;;;;3.37;2.40;;;;;;;18.36;53.25;101090.63;5033595;28;20467;-75
2022/05/13 09:22:58;;;;;;;4.53;2.60;;;;;;;18.47;54.70;101099.22;5033658;28;20858;-75
2022/05/13 09:25:33;;;;;;;2.87;2.07;;;;;;;18.43;53.75;101095.56;5033519;28;20459;-75
2022/05/13 09:28:01;;;;;;;11.90;2.10;;;;;;;18.41;56.01;101084.91;5033523;28;20886;-75
2022/05/13 09:30:34;;;;;;;2.60;1.93;;;;;;;18.50;54.40;101091.09;5033494;28;20530;-75
2022/05/13 09:33:19;;;;;;;4.63;2.30;;;;;;;18.53;54.43;101092.34;5033435;28;20420;-75
2022/05/13 09:35:47;;;;;;;3.63;2.30;;;;;;;18.65;55.55;101086.88;5033360;28;20570;-75
2022/05/13 09:38:15;;;;;;;2.40;1.90;;;;;;;18.84;53.53;101095.34;5033250;28;20435;-74
2022/05/13 09:40:57;;;;;;;4.27;3.00;;;;;;;19.18;52.86;101092.47;5033192;28;20483;-75
2022/05/13 09:43:34;;;;;;;3.87;1.97;;;;;;;19.30;50.98;101095.97;5033045;28;20920;-75
2022/05/13 09:46:05;;;;;;;3.93;2.40;;;;;;;19.35;51.86;101092.97;5033640;28;20463;-73
2022/05/13 09:48:35;;;;;;;2.63;2.37;;;;;;;19.51;51.98;101095.78;5032942;28;20956;-74
2022/05/13 09:51:22;;;;;;;2.13;1.90;;;;;;;19.42;51.25;101095.13;5032892;28;20456;-76
2022/05/13 09:54:02;;;;;;;2.90;1.93;;;;;;;19.39;50.76;101082.91;5033362;28;20428;-75
2022/05/13 09:56:41;;;;;;;1.97;1.40;;;;;;;19.32;50.92;101079.13;5032825;28;20848;-75
2022/05/13 09:59:15;;;;;;;4.10;1.60;;;;;;;19.50;52.19;101076.91;5033086;28;20502;-75
2022/05/13 10:01:42;;;;;;;4.20;2.00;;;;;;;19.66;50.62;101075.03;5032963;28;20479;-75
2022/05/13 10:04:12;;;;;;;2.73;2.23;;;;;;;19.71;50.53;101076.75;5032901;28;20447;-75
2022/05/13 10:06:40;;;;;;;2.57;2.23;;;;;;;19.54;49.92;101075.84;5033141;28;20471;-75
2022/05/13 10:14:45;;;;;;;2.77;1.90;;;;;;;19.21;51.03;101070.56;5032843;28;20414;-75
2022/05/13 10:17:16;;;;;;;3.60;1.90;;;;;;;19.02;51.67;101073.13;5032572;28;20525;-75
2022/05/13 10:19:48;;;;;;;3.93;2.30;;;;;;;18.81;52.19;101081.50;5033024;28;20477;-75
2022/05/13 10:22:23;;;;;;;4.80;2.50;;;;;;;18.67;52.42;101073.59;5032947;28;20463;-74
2022/05/13 10:24:55;;;;;;;6.40;2.63;;;;;;;18.62;52.46;101082.06;5032893;28;20426;-75
2022/05/13 10:27:29;;;;;;;3.77;1.90;;;;;;;18.58;52.90;101073.72;5032541;28;20964;-75
2022/05/13 10:30:01;;;;;;;2.73;1.93;;;;;;;18.67;52.56;101068.13;5032637;28;20829;-75
2022/05/13 10:32:41;;;;;;;3.60;1.40;;;;;;;18.69;51.04;101081.50;5032916;28;20419;-75
2022/05/13 10:35:12;;;;;;;1.80;1.20;;;;;;;18.84;51.39;101078.88;5032815;28;20423;-75
2022/05/13 10:37:51;;;;;;;2.17;1.60;;;;;;;18.96;51.30;101069.84;5032493;28;20914;-75
2022/05/13 10:40:20;;;;;;;1.80;1.40;;;;;;;19.15;50.91;101050.00;5032738;28;20801;-75
2022/05/13 10:42:57;;;;;;;3.03;1.53;;;;;;;19.39;50.22;101066.41;5032352;28;21031;-75
2022/05/13 10:45:25;;;;;;;3.40;1.83;;;;;;;19.57;48.66;101063.38;5032745;28;20462;-74
2022/05/13 10:47:59;;;;;;;2.10;1.27;;;;;;;19.71;48.38;101063.78;5032578;28;20458;-75
2022/05/13 10:50:34;;;;;;;2.60;1.60;;;;;;;19.85;47.11;101071.63;5032735;28;20431;-75
2022/05/13 10:53:11;;;;;;;1.20;0.90;;;;;;;19.76;46.63;101071.78;5032852;28;20462;-75
2022/05/13 10:55:57;;;;;;;14.43;2.00;;;;;;;19.67;46.56;101059.34;5032176;28;20841;-75
2022/05/13 10:58:36;;;;;;;2.40;1.47;;;;;;;19.62;47.86;101063.16;5032608;28;20463;-75
2022/05/13 11:01:20;;;;;;;2.17;1.80;;;;;;;19.29;45.67;101066.88;5033909;28;20473;-75
2022/05/13 11:03:58;;;;;;;1.87;1.57;;;;;;;19.05;43.88;101076.00;5035949;28;20920;-75
2022/05/13 11:06:44;;;;;;;1.43;1.33;;;;;;;18.97;44.19;101070.63;5036079;28;20466;-75
2022/05/13 11:09:22;;;;;;;2.60;1.90;;;;;;;18.88;44.68;101077.06;5036402;28;20431;-75
2022/05/13 11:11:48;;;;;;;5.33;1.60;;;;;;;18.85;45.81;101074.97;5035655;28;20446;-75
2022/05/13 11:14:36;;;;;;;7.83;1.70;;;;;;;19.45;43.87;101083.44;5035961;28;20443;-75
2022/05/13 11:17:12;;;;;;;1.20;1.10;;;;;;;20.53;42.57;101073.34;5035447;28;20988;-75
2022/05/13 11:19:46;;;;;;;1.63;1.40;;;;;;;21.41;41.14;101074.56;5035892;28;20474;-74
2022/05/13 11:22:20;;;;;;;4.20;1.80;;;;;;;21.66;39.13;101080.59;5035932;28;20463;-75
2022/05/13 11:27:52;;;;;;;1.80;1.40;;;;;;;20.84;39.77;101075.25;5035645;28;20415;-75
2022/05/13 11:30:23;;;;;;;4.93;1.83;;;;;;;20.62;40.76;101080.28;5035914;28;20798;-74
2022/05/13 11:32:57;;;;;;;3.37;1.70;;;;;;;20.32;42.30;101077.16;5035708;28;20427;-75
2022/05/13 11:35:38;;;;;;;2.27;1.40;;;;;;;20.28;42.13;101086.50;5035276;28;20841;-75
2022/05/13 11:38:11;;;;;;;3.40;1.50;;;;;;;20.12;42.99;101092.75;5035483;28;20431;-74
2022/05/13 11:40:45;;;;;;;1.70;1.23;;;;;;;20.01;43.00;101079.88;5035494;28;20428;-75
2022/05/13 11:43:33;;;;;;;1.80;1.47;;;;;;;19.70;43.48;101086.09;5035449;28;20431;-75
2022/05/13 11:46:26;;;;;;;3.53;1.20;;;;;;;19.53;44.40;101100.94;5035069;28;20459;-75
2022/05/13 11:48:56;;;;;;;4.57;1.70;;;;;;;19.40;44.56;101095.47;5035377;28;20427;-75
2022/05/13 11:51:27;;;;;;;1.40;1.13;;;;;;;19.28;45.28;101098.25;5034976;28;20933;-75
2022/05/13 11:54:11;;;;;;;1.50;1.13;;;;;;;19.28;45.80;101091.97;5035214;28;20440;-75
2022/05/13 11:56:39;;;;;;;3.30;1.70;;;;;;;19.41;45.82;101096.28;5035147;28;20828;-71
2022/05/13 11:59:09;;;;;;;2.70;1.33;;;;;;;19.47;44.89;101099.56;5035217;28;20538;-73
2022/05/13 12:01:57;;;;;;;1.53;1.03;;;;;;;19.57;45.02;101099.91;5035276;28;20468;-73
2022/05/13 12:04:28;;;;;;;3.73;1.30;;;;;;;20.25;43.68;101101.75;5035064;28;20434;-72
2022/05/13 12:06:58;;;;;;;2.10;0.90;;;;;;;21.40;42.78;101106.06;5034832;28;20471;-73
2022/05/13 12:09:29;;;;;;;4.03;0.80;;;;;;;22.03;41.61;101099.41;5034951;28;20483;-74